sensor_id;sensor_type;location;lat;lon;timestamp;pressure;altitude;pressure_sealevel;temperature;humidity
72961;BME280;61141;46.204;19.774;2023-11-21T00:02:50;100071.69;;;4.88;100.00
72961;BME280;61141;46.204;19.774;2023-11-21T00:05:53;100069.53;;;4.93;100.00
72961;BME280;61141;46.204;19.774;2023-11-21T00:08:56;100067.50;;;4.90;100.00
72961;BME280;61141;46.204;19.774;2023-11-21T00:11:59;100074.50;;;5.03;100.00
72961;BME280;61141;46.204;19.774;2023-11-21T00:15:03;100059.38;;;5.02;100.00
72961;BME280;61141;46.204;19.774;2023-11-21T00:18:08;100059.47;;;5.18;100.00
72961;BME280;61141;46.204;19.774;2023-11-21T00:21:11;100058.47;;;5.10;100.00
72961;BME280;61141;46.204;19.774;2023-11-21T00:24:15;100056.00;;;5.05;100.00
72961;BME280;61141;46.204;19.774;2023-11-21T00:27:18;100064.81;;;5.02;100.00
72961;BME280;61141;46.204;19.774;2023-11-21T00:30:21;100057.69;;;5.10;100.00
72961;BME280;61141;46.204;19.774;2023-11-21T00:33:24;100061.75;;;5.04;100.00
72961;BME280;61141;46.204;19.774;2023-11-21T00:36:28;100063.19;;;4.89;100.00
72961;BME280;61141;46.204;19.774;2023-11-21T00:39:31;100073.50;;;5.20;100.00
72961;BME280;61141;46.204;19.774;2023-11-21T00:42:35;100070.00;;;5.31;100.00
72961;BME280;61141;46.204;19.774;2023-11-21T00:45:38;100070.69;;;5.16;100.00
72961;BME280;61141;46.204;19.774;2023-11-21T00:48:43;100067.97;;;5.28;100.00
72961;BME280;61141;46.204;19.774;2023-11-21T00:51:45;100070.22;;;5.14;100.00
72961;BME280;61141;46.204;19.774;2023-11-21T00:54:48;100064.44;;;5.28;100.00
72961;BME280;61141;46.204;19.774;2023-11-21T00:57:52;100066.16;;;5.20;100.00
72961;BME280;61141;46.204;19.774;2023-11-21T01:00:55;100053.69;;;5.19;100.00
72961;BME280;61141;46.204;19.774;2023-11-21T01:03:58;100050.22;;;5.19;100.00
72961;BME280;61141;46.204;19.774;2023-11-21T01:07:01;100053.13;;;5.14;100.00
72961;BME280;61141;46.204;19.774;2023-11-21T01:10:05;100047.59;;;5.34;100.00
72961;BME280;61141;46.204;19.774;2023-11-21T01:13:10;100056.31;;;5.40;100.00
72961;BME280;61141;46.204;19.774;2023-11-21T01:16:13;100056.06;;;5.33;100.00
72961;BME280;61141;46.204;19.774;2023-11-21T01:19:16;100045.91;;;5.18;100.00
72961;BME280;61141;46.204;19.774;2023-11-21T01:22:19;100045.91;;;5.30;100.00
72961;BME280;61141;46.204;19.774;2023-11-21T01:25:28;100038.31;;;5.36;100.00
72961;BME280;61141;46.204;19.774;2023-11-21T01:28:31;100027.69;;;5.18;100.00
72961;BME280;61141;46.204;19.774;2023-11-21T01:31:35;100016.03;;;5.18;100.00
72961;BME280;61141;46.204;19.774;2023-11-21T01:34:38;100011.19;;;5.11;100.00
72961;BME280;61141;46.204;19.774;2023-11-21T01:37:40;100012.31;;;5.10;100.00
72961;BME280;61141;46.204;19.774;2023-11-21T01:40:43;100008.03;;;5.09;100.00
72961;BME280;61141;46.204;19.774;2023-11-21T01:43:47;99997.03;;;5.18;100.00
72961;BME280;61141;46.204;19.774;2023-11-21T01:46:51;100003.78;;;5.36;100.00
72961;BME280;61141;46.204;19.774;2023-11-21T01:49:54;99981.38;;;5.39;100.00
72961;BME280;61141;46.204;19.774;2023-11-21T01:52:57;99989.75;;;5.46;100.00
72961;BME280;61141;46.204;19.774;2023-11-21T01:56:00;99985.75;;;5.56;100.00
72961;BME280;61141;46.204;19.774;2023-11-21T01:59:03;99983.41;;;5.42;100.00
72961;BME280;61141;46.204;19.774;2023-11-21T02:02:07;99983.56;;;5.61;100.00
72961;BME280;61141;46.204;19.774;2023-11-21T02:05:17;99977.69;;;5.59;100.00
72961;BME280;61141;46.204;19.774;2023-11-21T02:08:26;99983.53;;;5.73;100.00
72961;BME280;61141;46.204;19.774;2023-11-21T02:11:30;99977.81;;;5.63;100.00
72961;BME280;61141;46.204;19.774;2023-11-21T02:14:32;99984.63;;;5.57;100.00
72961;BME280;61141;46.204;19.774;2023-11-21T02:17:36;99987.59;;;5.40;100.00
72961;BME280;61141;46.204;19.774;2023-11-21T02:20:39;99981.62;;;5.34;100.00
72961;BME280;61141;46.204;19.774;2023-11-21T02:23:44;99975.38;;;5.46;100.00
72961;BME280;61141;46.204;19.774;2023-11-21T02:26:50;99970.75;;;5.46;100.00
72961;BME280;61141;46.204;19.774;2023-11-21T02:29:56;99970.06;;;5.37;100.00
72961;BME280;61141;46.204;19.774;2023-11-21T02:33:00;99962.72;;;5.38;100.00
72961;BME280;61141;46.204;19.774;2023-11-21T02:36:04;99951.81;;;5.50;100.00
72961;BME280;61141;46.204;19.774;2023-11-21T02:39:09;99956.56;;;5.53;100.00
72961;BME280;61141;46.204;19.774;2023-11-21T02:42:11;99958.31;;;5.61;100.00
72961;BME280;61141;46.204;19.774;2023-11-21T02:45:14;99962.87;;;5.57;100.00
72961;BME280;61141;46.204;19.774;2023-11-21T02:48:19;99973.31;;;5.55;100.00
72961;BME280;61141;46.204;19.774;2023-11-21T02:51:22;99976.22;;;5.62;100.00
72961;BME280;61141;46.204;19.774;2023-11-21T02:54:25;99980.19;;;5.64;100.00
72961;BME280;61141;46.204;19.774;2023-11-21T02:57:30;99972.06;;;5.80;100.00
72961;BME280;61141;46.204;19.774;2023-11-21T03:00:32;99974.78;;;5.80;100.00
72961;BME280;61141;46.204;19.774;2023-11-21T03:03:35;99978.19;;;5.89;100.00
72961;BME280;61141;46.204;19.774;2023-11-21T03:06:39;99966.19;;;5.90;100.00
72961;BME280;61141;46.204;19.774;2023-11-21T03:09:42;99973.13;;;6.03;100.00
72961;BME280;61141;46.204;19.774;2023-11-21T03:12:45;99961.81;;;6.01;100.00
72961;BME280;61141;46.204;19.774;2023-11-21T03:15:48;99945.34;;;5.82;100.00
72961;BME280;61141;46.204;19.774;2023-11-21T03:18:51;99951.44;;;5.91;100.00
72961;BME280;61141;46.204;19.774;2023-11-21T03:21:55;99946.38;;;6.05;100.00
72961;BME280;61141;46.204;19.774;2023-11-21T03:24:58;99952.12;;;6.16;100.00
72961;BME280;61141;46.204;19.774;2023-11-21T03:28:01;99947.13;;;6.18;100.00
72961;BME280;61141;46.204;19.774;2023-11-21T03:31:05;99957.72;;;6.23;100.00
72961;BME280;61141;46.204;19.774;2023-11-21T03:34:16;99955.91;;;6.27;100.00
72961;BME280;61141;46.204;19.774;2023-11-21T03:37:19;99949.22;;;6.24;100.00
72961;BME280;61141;46.204;19.774;2023-11-21T03:40:23;99940.25;;;6.08;100.00
72961;BME280;61141;46.204;19.774;2023-11-21T03:43:26;99937.25;;;6.13;100.00
72961;BME280;61141;46.204;19.774;2023-11-21T03:46:29;99924.13;;;6.15;100.00
72961;BME280;61141;46.204;19.774;2023-11-21T03:49:32;99936.94;;;6.30;100.00
72961;BME280;61141;46.204;19.774;2023-11-21T03:52:35;99934.56;;;6.29;100.00
72961;BME280;61141;46.204;19.774;2023-11-21T03:55:37;99941.06;;;6.40;100.00
72961;BME280;61141;46.204;19.774;2023-11-21T03:58:41;99935.97;;;6.23;100.00
72961;BME280;61141;46.204;19.774;2023-11-21T04:01:44;99943.59;;;6.17;100.00
72961;BME280;61141;46.204;19.774;2023-11-21T04:04:47;99945.56;;;6.48;100.00
72961;BME280;61141;46.204;19.774;2023-11-21T04:07:50;99955.00;;;6.38;100.00
72961;BME280;61141;46.204;19.774;2023-11-21T04:10:56;99955.00;;;6.38;100.00
72961;BME280;61141;46.204;19.774;2023-11-21T04:13:59;99954.03;;;6.46;100.00
72961;BME280;61141;46.204;19.774;2023-11-21T04:17:02;99950.88;;;6.44;100.00
72961;BME280;61141;46.204;19.774;2023-11-21T04:20:07;99948.59;;;6.46;100.00
72961;BME280;61141;46.204;19.774;2023-11-21T04:23:12;99948.44;;;6.55;100.00
72961;BME280;61141;46.204;19.774;2023-11-21T04:26:16;99945.38;;;6.57;100.00
72961;BME280;61141;46.204;19.774;2023-11-21T04:29:19;99942.03;;;6.47;100.00
72961;BME280;61141;46.204;19.774;2023-11-21T04:32:21;99935.53;;;6.36;100.00
72961;BME280;61141;46.204;19.774;2023-11-21T04:35:24;99941.34;;;6.50;100.00
72961;BME280;61141;46.204;19.774;2023-11-21T04:38:27;99937.09;;;6.69;100.00
72961;BME280;61141;46.204;19.774;2023-11-21T04:41:30;99935.88;;;6.66;100.00
72961;BME280;61141;46.204;19.774;2023-11-21T04:44:34;99927.88;;;6.58;100.00
72961;BME280;61141;46.204;19.774;2023-11-21T04:47:37;99935.09;;;6.50;100.00
72961;BME280;61141;46.204;19.774;2023-11-21T04:50:40;99920.09;;;6.40;100.00
72961;BME280;61141;46.204;19.774;2023-11-21T04:53:43;99934.31;;;6.49;100.00
72961;BME280;61141;46.204;19.774;2023-11-21T04:56:45;99913.06;;;6.39;100.00
72961;BME280;61141;46.204;19.774;2023-11-21T04:59:49;99926.28;;;6.72;100.00
72961;BME280;61141;46.204;19.774;2023-11-21T05:02:52;99929.62;;;6.81;100.00
72961;BME280;61141;46.204;19.774;2023-11-21T05:05:55;99930.16;;;6.71;100.00
72961;BME280;61141;46.204;19.774;2023-11-21T05:08:58;99936.72;;;6.86;100.00
72961;BME280;61141;46.204;19.774;2023-11-21T05:12:01;99925.28;;;6.96;100.00
72961;BME280;61141;46.204;19.774;2023-11-21T05:15:05;99926.16;;;7.00;100.00
72961;BME280;61141;46.204;19.774;2023-11-21T05:18:17;99928.47;;;6.82;100.00
72961;BME280;61141;46.204;19.774;2023-11-21T05:21:20;99936.84;;;6.74;100.00
72961;BME280;61141;46.204;19.774;2023-11-21T05:24:23;99945.44;;;6.60;100.00
72961;BME280;61141;46.204;19.774;2023-11-21T05:27:26;99943.34;;;6.69;100.00
72961;BME280;61141;46.204;19.774;2023-11-21T05:30:29;99962.19;;;6.78;100.00
72961;BME280;61141;46.204;19.774;2023-11-21T05:33:32;99964.50;;;6.76;100.00
72961;BME280;61141;46.204;19.774;2023-11-21T05:36:36;99961.34;;;6.74;100.00
72961;BME280;61141;46.204;19.774;2023-11-21T05:39:38;99969.91;;;6.91;100.00
72961;BME280;61141;46.204;19.774;2023-11-21T05:42:41;99974.84;;;6.86;100.00
72961;BME280;61141;46.204;19.774;2023-11-21T05:45:44;99969.94;;;6.76;100.00
72961;BME280;61141;46.204;19.774;2023-11-21T05:48:47;99989.50;;;6.81;100.00
72961;BME280;61141;46.204;19.774;2023-11-21T05:51:50;99988.34;;;6.98;100.00
72961;BME280;61141;46.204;19.774;2023-11-21T05:54:56;99992.47;;;6.92;100.00
72961;BME280;61141;46.204;19.774;2023-11-21T05:57:59;99987.56;;;6.97;100.00
72961;BME280;61141;46.204;19.774;2023-11-21T06:01:05;99987.38;;;7.06;100.00
72961;BME280;61141;46.204;19.774;2023-11-21T06:04:10;99986.28;;;7.26;100.00
72961;BME280;61141;46.204;19.774;2023-11-21T06:07:13;99988.03;;;7.19;100.00
72961;BME280;61141;46.204;19.774;2023-11-21T06:10:19;99990.28;;;6.97;100.00
72961;BME280;61141;46.204;19.774;2023-11-21T06:13:22;99986.78;;;6.81;100.00
72961;BME280;61141;46.204;19.774;2023-11-21T06:16:27;99996.94;;;7.00;100.00
72961;BME280;61141;46.204;19.774;2023-11-21T06:19:30;99997.75;;;7.35;100.00
72961;BME280;61141;46.204;19.774;2023-11-21T06:22:33;99989.78;;;7.27;100.00
72961;BME280;61141;46.204;19.774;2023-11-21T06:25:36;100009.03;;;7.34;100.00
72961;BME280;61141;46.204;19.774;2023-11-21T06:28:39;100012.81;;;7.48;100.00
72961;BME280;61141;46.204;19.774;2023-11-21T06:31:42;100008.88;;;7.46;100.00
72961;BME280;61141;46.204;19.774;2023-11-21T06:34:46;100019.78;;;7.46;100.00
72961;BME280;61141;46.204;19.774;2023-11-21T06:37:49;100021.84;;;7.33;100.00
72961;BME280;61141;46.204;19.774;2023-11-21T06:40:54;100039.09;;;7.56;100.00
72961;BME280;61141;46.204;19.774;2023-11-21T06:43:57;100041.69;;;7.68;100.00
72961;BME280;61141;46.204;19.774;2023-11-21T06:47:02;100065.50;;;7.72;100.00
72961;BME280;61141;46.204;19.774;2023-11-21T06:50:05;100064.66;;;7.67;100.00
72961;BME280;61141;46.204;19.774;2023-11-21T06:53:09;100069.69;;;7.85;100.00
72961;BME280;61141;46.204;19.774;2023-11-21T06:56:19;100073.94;;;8.01;100.00
72961;BME280;61141;46.204;19.774;2023-11-21T06:59:22;100071.50;;;7.96;100.00
72961;BME280;61141;46.204;19.774;2023-11-21T07:02:25;100074.94;;;8.12;100.00
72961;BME280;61141;46.204;19.774;2023-11-21T07:05:28;100062.88;;;8.13;100.00
72961;BME280;61141;46.204;19.774;2023-11-21T07:08:31;100073.09;;;7.97;100.00
72961;BME280;61141;46.204;19.774;2023-11-21T07:11:35;100074.81;;;8.05;100.00
72961;BME280;61141;46.204;19.774;2023-11-21T07:14:37;100063.69;;;7.95;100.00
72961;BME280;61141;46.204;19.774;2023-11-21T07:17:42;100064.09;;;8.16;100.00
72961;BME280;61141;46.204;19.774;2023-11-21T07:20:47;100065.62;;;8.13;100.00
72961;BME280;61141;46.204;19.774;2023-11-21T07:23:50;100060.47;;;8.27;100.00
72961;BME280;61141;46.204;19.774;2023-11-21T07:26:54;100060.22;;;8.55;100.00
72961;BME280;61141;46.204;19.774;2023-11-21T07:29:59;100058.75;;;8.39;100.00
72961;BME280;61141;46.204;19.774;2023-11-21T07:33:02;100060.38;;;8.43;100.00
72961;BME280;61141;46.204;19.774;2023-11-21T07:36:05;100062.00;;;8.67;100.00
72961;BME280;61141;46.204;19.774;2023-11-21T07:39:09;100080.38;;;8.93;100.00
72961;BME280;61141;46.204;19.774;2023-11-21T07:42:13;100083.34;;;8.84;100.00
72961;BME280;61141;46.204;19.774;2023-11-21T07:45:16;100087.16;;;8.79;100.00
72961;BME280;61141;46.204;19.774;2023-11-21T07:48:19;100084.28;;;8.92;100.00
72961;BME280;61141;46.204;19.774;2023-11-21T07:51:22;100097.31;;;9.02;100.00
72961;BME280;61141;46.204;19.774;2023-11-21T07:54:25;100096.34;;;9.13;100.00
72961;BME280;61141;46.204;19.774;2023-11-21T07:57:28;100093.78;;;9.24;100.00
72961;BME280;61141;46.204;19.774;2023-11-21T08:00:31;100099.56;;;9.19;100.00
72961;BME280;61141;46.204;19.774;2023-11-21T08:03:34;100092.09;;;8.93;100.00
72961;BME280;61141;46.204;19.774;2023-11-21T08:06:36;100075.78;;;8.97;100.00
72961;BME280;61141;46.204;19.774;2023-11-21T08:09:40;100046.69;;;8.85;100.00
72961;BME280;61141;46.204;19.774;2023-11-21T08:12:42;100018.66;;;8.65;100.00
72961;BME280;61141;46.204;19.774;2023-11-21T08:15:45;100030.63;;;8.80;100.00
72961;BME280;61141;46.204;19.774;2023-11-21T08:18:49;100056.97;;;8.92;100.00
72961;BME280;61141;46.204;19.774;2023-11-21T08:21:52;100050.06;;;8.78;100.00
72961;BME280;61141;46.204;19.774;2023-11-21T08:24:57;100049.91;;;8.91;100.00
72961;BME280;61141;46.204;19.774;2023-11-21T08:28:00;100038.00;;;8.57;100.00
72961;BME280;61141;46.204;19.774;2023-11-21T08:31:06;100025.41;;;9.20;100.00
72961;BME280;61141;46.204;19.774;2023-11-21T08:34:09;100022.25;;;8.69;100.00
72961;BME280;61141;46.204;19.774;2023-11-21T08:37:14;100022.81;;;9.05;100.00
72961;BME280;61141;46.204;19.774;2023-11-21T08:40:19;100017.19;;;8.94;100.00
72961;BME280;61141;46.204;19.774;2023-11-21T08:43:22;100011.38;;;9.22;100.00
72961;BME280;61141;46.204;19.774;2023-11-21T08:46:27;99999.72;;;9.25;100.00
72961;BME280;61141;46.204;19.774;2023-11-21T08:49:30;99994.44;;;9.39;100.00
72961;BME280;61141;46.204;19.774;2023-11-21T08:52:34;100003.28;;;9.03;100.00
72961;BME280;61141;46.204;19.774;2023-11-21T08:55:37;99996.69;;;9.33;100.00
72961;BME280;61141;46.204;19.774;2023-11-21T08:58:40;100003.06;;;9.41;100.00
72961;BME280;61141;46.204;19.774;2023-11-21T09:01:44;100001.62;;;9.51;100.00
72961;BME280;61141;46.204;19.774;2023-11-21T09:04:47;100009.41;;;9.78;100.00
72961;BME280;61141;46.204;19.774;2023-11-21T09:07:50;100005.41;;;9.72;100.00
72961;BME280;61141;46.204;19.774;2023-11-21T09:10:53;99972.84;;;9.04;100.00
72961;BME280;61141;46.204;19.774;2023-11-21T09:13:56;99956.34;;;8.71;100.00
72961;BME280;61141;46.204;19.774;2023-11-21T09:17:00;99942.09;;;8.58;100.00
72961;BME280;61141;46.204;19.774;2023-11-21T09:20:04;99941.66;;;8.56;100.00
72961;BME280;61141;46.204;19.774;2023-11-21T09:23:10;99953.03;;;8.84;100.00
72961;BME280;61141;46.204;19.774;2023-11-21T09:26:12;99967.78;;;9.03;100.00
72961;BME280;61141;46.204;19.774;2023-11-21T09:29:15;99956.66;;;9.48;100.00
72961;BME280;61141;46.204;19.774;2023-11-21T09:32:18;99935.38;;;8.78;100.00
72961;BME280;61141;46.204;19.774;2023-11-21T09:35:21;99924.25;;;8.91;100.00
72961;BME280;61141;46.204;19.774;2023-11-21T09:38:24;99936.59;;;9.07;100.00
72961;BME280;61141;46.204;19.774;2023-11-21T09:41:40;99946.28;;;9.31;100.00
72961;BME280;61141;46.204;19.774;2023-11-21T09:48:16;99924.00;;;9.29;100.00
72961;BME280;61141;46.204;19.774;2023-11-21T09:51:20;99931.38;;;9.55;100.00
72961;BME280;61141;46.204;19.774;2023-11-21T09:54:25;99931.53;;;9.06;100.00
72961;BME280;61141;46.204;19.774;2023-11-21T09:57:29;99922.47;;;9.31;100.00
72961;BME280;61141;46.204;19.774;2023-11-21T10:00:33;99934.88;;;9.22;100.00
72961;BME280;61141;46.204;19.774;2023-11-21T10:03:39;99919.28;;;9.26;100.00
72961;BME280;61141;46.204;19.774;2023-11-21T10:06:42;99917.34;;;9.26;100.00
72961;BME280;61141;46.204;19.774;2023-11-21T10:09:51;99911.34;;;9.14;100.00
72961;BME280;61141;46.204;19.774;2023-11-21T10:13:01;99901.75;;;9.01;100.00
72961;BME280;61141;46.204;19.774;2023-11-21T10:16:05;99903.72;;;9.30;100.00
72961;BME280;61141;46.204;19.774;2023-11-21T10:19:10;99897.69;;;9.14;100.00
72961;BME280;61141;46.204;19.774;2023-11-21T10:22:14;99891.78;;;9.41;100.00
72961;BME280;61141;46.204;19.774;2023-11-21T10:25:17;99893.72;;;9.74;100.00
72961;BME280;61141;46.204;19.774;2023-11-21T10:28:23;99887.00;;;9.35;100.00
72961;BME280;61141;46.204;19.774;2023-11-21T10:31:35;99882.06;;;9.48;100.00
72961;BME280;61141;46.204;19.774;2023-11-21T10:34:39;99885.53;;;9.44;100.00
72961;BME280;61141;46.204;19.774;2023-11-21T10:37:44;99877.06;;;9.53;100.00
72961;BME280;61141;46.204;19.774;2023-11-21T10:40:47;99881.38;;;9.54;100.00
72961;BME280;61141;46.204;19.774;2023-11-21T10:43:53;99881.88;;;9.30;100.00
72961;BME280;61141;46.204;19.774;2023-11-21T10:47:00;99881.78;;;9.56;100.00
72961;BME280;61141;46.204;19.774;2023-11-21T10:50:04;99871.56;;;9.86;100.00
72961;BME280;61141;46.204;19.774;2023-11-21T10:53:07;99866.06;;;9.86;100.00
72961;BME280;61141;46.204;19.774;2023-11-21T10:56:13;99844.12;;;9.79;100.00
72961;BME280;61141;46.204;19.774;2023-11-21T10:59:20;99862.16;;;9.84;100.00
72961;BME280;61141;46.204;19.774;2023-11-21T11:02:27;99853.78;;;10.07;100.00
72961;BME280;61141;46.204;19.774;2023-11-21T11:05:32;99851.16;;;9.77;100.00
72961;BME280;61141;46.204;19.774;2023-11-21T11:08:35;99839.31;;;9.66;100.00
72961;BME280;61141;46.204;19.774;2023-11-21T11:11:41;99838.00;;;9.93;100.00
72961;BME280;61141;46.204;19.774;2023-11-21T11:14:48;99849.97;;;9.78;100.00
72961;BME280;61141;46.204;19.774;2023-11-21T11:17:51;99846.84;;;10.16;100.00
72961;BME280;61141;46.204;19.774;2023-11-21T11:21:01;99848.22;;;9.96;100.00
72961;BME280;61141;46.204;19.774;2023-11-21T11:27:40;99840.34;;;9.91;100.00
72961;BME280;61141;46.204;19.774;2023-11-21T11:34:39;99828.31;;;10.02;100.00
72961;BME280;61141;46.204;19.774;2023-11-21T11:37:34;99830.81;;;10.15;100.00
72961;BME280;61141;46.204;19.774;2023-11-21T11:40:46;99825.25;;;9.64;100.00
72961;BME280;61141;46.204;19.774;2023-11-21T11:43:50;99814.00;;;9.76;100.00
72961;BME280;61141;46.204;19.774;2023-11-21T11:46:52;99816.38;;;10.18;100.00
72961;BME280;61141;46.204;19.774;2023-11-21T11:50:05;99814.03;;;10.20;100.00
72961;BME280;61141;46.204;19.774;2023-11-21T11:53:22;99814.03;;;10.16;100.00
72961;BME280;61141;46.204;19.774;2023-11-21T11:56:30;99800.91;;;10.43;100.00
72961;BME280;61141;46.204;19.774;2023-11-21T12:00:52;99818.50;;;9.98;100.00
72961;BME280;61141;46.204;19.774;2023-11-21T12:03:31;99824.19;;;10.19;100.00
72961;BME280;61141;46.204;19.774;2023-11-21T12:06:36;99819.13;;;9.77;100.00
72961;BME280;61141;46.204;19.774;2023-11-21T12:09:39;99819.13;;;9.81;100.00
72961;BME280;61141;46.204;19.774;2023-11-21T12:12:50;99821.97;;;10.39;100.00
72961;BME280;61141;46.204;19.774;2023-11-21T12:15:55;99825.72;;;10.17;100.00
72961;BME280;61141;46.204;19.774;2023-11-21T12:18:58;99824.09;;;10.12;100.00
72961;BME280;61141;46.204;19.774;2023-11-21T12:22:01;99831.06;;;10.02;100.00
72961;BME280;61141;46.204;19.774;2023-11-21T12:25:04;99831.31;;;10.31;100.00
72961;BME280;61141;46.204;19.774;2023-11-21T12:28:07;99818.37;;;10.28;100.00
72961;BME280;61141;46.204;19.774;2023-11-21T12:31:10;99826.66;;;9.91;100.00
72961;BME280;61141;46.204;19.774;2023-11-21T12:34:24;99816.50;;;9.91;100.00
72961;BME280;61141;46.204;19.774;2023-11-21T12:37:26;99826.91;;;9.75;100.00
72961;BME280;61141;46.204;19.774;2023-11-21T12:40:30;99827.97;;;9.64;100.00
72961;BME280;61141;46.204;19.774;2023-11-21T12:43:33;99828.69;;;10.01;100.00
72961;BME280;61141;46.204;19.774;2023-11-21T12:46:41;99824.38;;;9.96;100.00
72961;BME280;61141;46.204;19.774;2023-11-21T12:49:44;99815.00;;;9.57;100.00
72961;BME280;61141;46.204;19.774;2023-11-21T12:52:47;99818.91;;;10.00;100.00
72961;BME280;61141;46.204;19.774;2023-11-21T12:55:50;99817.34;;;10.43;100.00
72961;BME280;61141;46.204;19.774;2023-11-21T12:58:54;99816.03;;;9.82;100.00
72961;BME280;61141;46.204;19.774;2023-11-21T13:01:59;99807.84;;;9.45;100.00
72961;BME280;61141;46.204;19.774;2023-11-21T13:05:08;99828.59;;;9.50;100.00
72961;BME280;61141;46.204;19.774;2023-11-21T13:08:22;99842.06;;;9.66;100.00
72961;BME280;61141;46.204;19.774;2023-11-21T13:11:27;99842.09;;;9.73;100.00
72961;BME280;61141;46.204;19.774;2023-11-21T13:14:34;99845.28;;;10.15;100.00
72961;BME280;61141;46.204;19.774;2023-11-21T13:17:37;99844.25;;;9.90;100.00
72961;BME280;61141;46.204;19.774;2023-11-21T13:20:40;99846.03;;;9.72;100.00
72961;BME280;61141;46.204;19.774;2023-11-21T13:23:44;99847.31;;;9.85;100.00
72961;BME280;61141;46.204;19.774;2023-11-21T13:26:49;99847.38;;;9.88;100.00
72961;BME280;61141;46.204;19.774;2023-11-21T13:29:52;99858.44;;;10.06;100.00
72961;BME280;61141;46.204;19.774;2023-11-21T13:32:55;99857.69;;;10.09;100.00
72961;BME280;61141;46.204;19.774;2023-11-21T13:36:00;99856.59;;;10.14;100.00
72961;BME280;61141;46.204;19.774;2023-11-21T13:39:04;99855.69;;;10.02;100.00
72961;BME280;61141;46.204;19.774;2023-11-21T13:42:11;99849.13;;;10.11;100.00
72961;BME280;61141;46.204;19.774;2023-11-21T13:45:14;99859.50;;;9.94;100.00
72961;BME280;61141;46.204;19.774;2023-11-21T13:48:17;99863.37;;;9.90;100.00
72961;BME280;61141;46.204;19.774;2023-11-21T13:51:27;99857.53;;;9.91;100.00
72961;BME280;61141;46.204;19.774;2023-11-21T13:54:41;99856.50;;;9.66;100.00
72961;BME280;61141;46.204;19.774;2023-11-21T13:57:45;99854.25;;;9.75;100.00
72961;BME280;61141;46.204;19.774;2023-11-21T14:00:52;99860.81;;;9.67;100.00
72961;BME280;61141;46.204;19.774;2023-11-21T14:04:01;99863.63;;;9.74;100.00
72961;BME280;61141;46.204;19.774;2023-11-21T14:07:19;99862.84;;;10.14;100.00
72961;BME280;61141;46.204;19.774;2023-11-21T14:10:34;99869.91;;;9.78;100.00
72961;BME280;61141;46.204;19.774;2023-11-21T14:13:46;99864.09;;;9.83;100.00
72961;BME280;61141;46.204;19.774;2023-11-21T14:16:54;99866.63;;;9.62;100.00
72961;BME280;61141;46.204;19.774;2023-11-21T14:20:01;99857.97;;;9.57;100.00
72961;BME280;61141;46.204;19.774;2023-11-21T14:23:09;99864.56;;;9.56;100.00
72961;BME280;61141;46.204;19.774;2023-11-21T14:26:12;99883.59;;;9.41;100.00
72961;BME280;61141;46.204;19.774;2023-11-21T14:29:18;99852.59;;;9.30;100.00
72961;BME280;61141;46.204;19.774;2023-11-21T14:32:26;99880.34;;;9.32;100.00
72961;BME280;61141;46.204;19.774;2023-11-21T14:35:29;99879.59;;;9.72;100.00
72961;BME280;61141;46.204;19.774;2023-11-21T14:38:35;99885.50;;;9.74;100.00
72961;BME280;61141;46.204;19.774;2023-11-21T14:41:38;99883.19;;;9.43;100.00
72961;BME280;61141;46.204;19.774;2023-11-21T14:44:41;99872.66;;;9.45;100.00
72961;BME280;61141;46.204;19.774;2023-11-21T14:47:46;99882.78;;;9.41;100.00
72961;BME280;61141;46.204;19.774;2023-11-21T14:50:59;99887.63;;;9.55;100.00
72961;BME280;61141;46.204;19.774;2023-11-21T14:54:04;99895.88;;;9.58;100.00
72961;BME280;61141;46.204;19.774;2023-11-21T14:57:14;99883.19;;;9.43;100.00
72961;BME280;61141;46.204;19.774;2023-11-21T15:00:21;99892.53;;;9.42;100.00
72961;BME280;61141;46.204;19.774;2023-11-21T15:03:39;99884.03;;;9.17;100.00
72961;BME280;61141;46.204;19.774;2023-11-21T15:06:52;99900.69;;;9.09;100.00
72961;BME280;61141;46.204;19.774;2023-11-21T15:09:58;99892.84;;;9.04;100.00
72961;BME280;61141;46.204;19.774;2023-11-21T15:13:01;99886.75;;;9.14;100.00
72961;BME280;61141;46.204;19.774;2023-11-21T15:16:05;99882.50;;;9.20;100.00
72961;BME280;61141;46.204;19.774;2023-11-21T15:19:11;99883.69;;;8.89;100.00
72961;BME280;61141;46.204;19.774;2023-11-21T15:22:20;99883.38;;;8.98;100.00
72961;BME280;61141;46.204;19.774;2023-11-21T15:25:23;99867.38;;;8.96;100.00
72961;BME280;61141;46.204;19.774;2023-11-21T15:28:26;99893.16;;;8.99;100.00
72961;BME280;61141;46.204;19.774;2023-11-21T15:31:29;99887.34;;;9.00;100.00
72961;BME280;61141;46.204;19.774;2023-11-21T15:34:33;99890.94;;;9.08;100.00
72961;BME280;61141;46.204;19.774;2023-11-21T15:37:36;99894.09;;;9.10;100.00
72961;BME280;61141;46.204;19.774;2023-11-21T15:40:38;99899.34;;;8.96;100.00
72961;BME280;61141;46.204;19.774;2023-11-21T15:43:41;99893.16;;;8.99;100.00
72961;BME280;61141;46.204;19.774;2023-11-21T15:46:44;99886.87;;;8.95;100.00
72961;BME280;61141;46.204;19.774;2023-11-21T15:49:47;99889.16;;;8.93;100.00
72961;BME280;61141;46.204;19.774;2023-11-21T15:52:52;99890.59;;;8.83;100.00
72961;BME280;61141;46.204;19.774;2023-11-21T15:56:00;99893.81;;;8.89;100.00
72961;BME280;61141;46.204;19.774;2023-11-21T15:59:03;99883.62;;;8.85;100.00
72961;BME280;61141;46.204;19.774;2023-11-21T16:02:06;99885.22;;;8.90;100.00
72961;BME280;61141;46.204;19.774;2023-11-21T16:05:10;99867.50;;;8.77;100.00
72961;BME280;61141;46.204;19.774;2023-11-21T16:08:16;99895.34;;;8.86;100.00
72961;BME280;61141;46.204;19.774;2023-11-21T16:11:20;99898.53;;;8.92;100.00